createdAt,value
2022-11-16T00:02:15.072Z,16.60
2022-11-16T00:04:42.299Z,9.80
2022-11-16T00:07:09.652Z,17.98
2022-11-16T00:09:36.661Z,20.65
2022-11-16T00:12:07.497Z,18.42
2022-11-16T00:14:35.725Z,13.38
2022-11-16T00:17:03.377Z,20.88
2022-11-16T00:19:30.112Z,15.48
2022-11-16T00:21:57.038Z,17.40
2022-11-16T00:24:24.247Z,12.63
2022-11-16T00:26:53.866Z,18.13
2022-11-16T00:29:26.942Z,24.73
2022-11-16T00:31:54.758Z,24.83
2022-11-16T00:34:23.311Z,14.73
2022-11-16T00:36:50.587Z,11.45
2022-11-16T00:39:19.500Z,13.70
2022-11-16T00:41:46.882Z,15.45
2022-11-16T00:44:14.260Z,17.20
2022-11-16T00:46:41.211Z,16.65
2022-11-16T00:49:08.453Z,20.35
2022-11-16T00:51:36.606Z,13.85
2022-11-16T00:54:05.614Z,16.90
2022-11-16T00:56:32.319Z,16.25
2022-11-16T00:58:59.226Z,19.52
2022-11-16T01:01:26.099Z,16.65
2022-11-16T01:03:53.026Z,20.77
2022-11-16T01:06:20.466Z,13.55
2022-11-16T01:08:47.467Z,19.58
2022-11-16T01:11:35.109Z,16.13
2022-11-16T01:14:04.470Z,11.30
2022-11-16T01:16:31.425Z,12.63
2022-11-16T01:18:58.153Z,13.45
2022-11-16T01:21:25.013Z,13.68
2022-11-16T01:23:52.545Z,14.93
2022-11-16T01:26:19.464Z,13.88
2022-11-16T01:28:46.325Z,9.85
2022-11-16T01:31:13.278Z,10.43
2022-11-16T01:33:40.468Z,18.33
2022-11-16T01:36:15.037Z,14.98
2022-11-16T01:38:46.649Z,22.30
2022-11-16T01:41:15.629Z,28.92
2022-11-16T01:43:58.312Z,25.27
2022-11-16T01:46:26.040Z,25.48
2022-11-16T01:49:20.713Z,41.47
2022-11-16T01:51:52.950Z,22.40
2022-11-16T01:54:20.092Z,30.95
2022-11-16T01:56:49.284Z,21.75
2022-11-16T01:59:17.483Z,21.73
2022-11-16T02:01:44.802Z,17.23
2022-11-16T02:04:12.853Z,12.73
2022-11-16T02:07:08.668Z,15.18
2022-11-16T02:10:02.474Z,15.98
2022-11-16T02:12:48.434Z,18.58
2022-11-16T02:15:37.984Z,14.80
2022-11-16T02:18:14.237Z,19.00
2022-11-16T02:21:02.965Z,20.40
2022-11-16T02:24:00.752Z,21.15
2022-11-16T02:26:33.443Z,17.73
2022-11-16T02:29:18.920Z,13.93
2022-11-16T02:32:00.582Z,13.95
2022-11-16T02:34:32.902Z,12.18
2022-11-16T02:37:01.759Z,11.33
2022-11-16T02:39:32.522Z,9.90
2022-11-16T02:42:01.996Z,8.93
2022-11-16T02:44:36.458Z,12.02
2022-11-16T02:47:08.506Z,10.85
2022-11-16T02:49:40.557Z,11.35
2022-11-16T02:52:10.367Z,11.60
2022-11-16T02:54:37.061Z,14.93
2022-11-16T02:57:03.680Z,13.07
2022-11-16T02:59:38.726Z,10.98
2022-11-16T03:02:27.998Z,12.02
2022-11-16T03:05:33.881Z,19.60
2022-11-16T03:08:18.817Z,16.80
2022-11-16T03:11:09.404Z,11.35
2022-11-16T03:13:38.188Z,11.05
2022-11-16T03:16:11.759Z,8.70
2022-11-16T03:18:40.878Z,12.27
2022-11-16T03:21:28.049Z,12.40
2022-11-16T03:23:54.869Z,17.40
2022-11-16T03:26:26.827Z,16.63
2022-11-16T03:29:01.720Z,8.75
2022-11-16T03:31:32.975Z,16.77
2022-11-16T03:34:04.070Z,12.38
2022-11-16T03:36:41.067Z,16.38
2022-11-16T03:39:13.065Z,12.43
2022-11-16T03:41:43.318Z,12.65
2022-11-16T03:44:13.624Z,25.25
2022-11-16T03:46:45.598Z,17.25
2022-11-16T03:49:12.373Z,21.52
2022-11-16T03:51:39.050Z,15.68
2022-11-16T03:54:06.354Z,15.30
2022-11-16T03:56:33.122Z,14.35
2022-11-16T03:58:59.793Z,18.02
2022-11-16T04:01:26.467Z,14.43
2022-11-16T04:03:53.203Z,18.73
2022-11-16T04:06:38.802Z,21.10
2022-11-16T04:09:23.964Z,13.73
2022-11-16T04:12:09.379Z,14.88
2022-11-16T04:14:54.606Z,15.52
2022-11-16T04:17:43.276Z,22.17
2022-11-16T04:20:31.481Z,20.80
2022-11-16T04:23:33.401Z,10.75
2022-11-16T04:26:00.685Z,18.80
2022-11-16T04:28:34.296Z,13.10
2022-11-16T04:31:33.010Z,11.77
2022-11-16T04:34:18.648Z,14.80
2022-11-16T04:37:03.685Z,17.17
2022-11-16T04:39:30.423Z,18.65
2022-11-16T04:42:15.383Z,22.20
2022-11-16T04:45:00.574Z,15.68
2022-11-16T04:47:27.185Z,19.23
2022-11-16T04:49:53.783Z,13.48
2022-11-16T04:52:20.550Z,20.10
2022-11-16T04:54:47.185Z,13.10
2022-11-16T04:57:13.973Z,15.82
2022-11-16T04:59:40.811Z,17.75
2022-11-16T05:02:10.367Z,10.52
2022-11-16T05:04:38.905Z,17.58
2022-11-16T05:07:11.342Z,15.55
2022-11-16T05:09:43.121Z,17.02
2022-11-16T05:12:12.035Z,14.85
2022-11-16T05:14:38.733Z,17.15
2022-11-16T05:17:05.497Z,13.80
2022-11-16T05:19:50.810Z,13.30
2022-11-16T05:22:17.824Z,22.08
2022-11-16T05:24:44.561Z,16.83
2022-11-16T05:27:13.731Z,18.55
2022-11-16T05:29:41.096Z,11.43
2022-11-16T05:32:08.561Z,14.40
2022-11-16T05:34:35.364Z,15.35
2022-11-16T05:37:02.284Z,12.73
2022-11-16T05:39:29.255Z,17.73
2022-11-16T05:41:56.860Z,15.98
2022-11-16T05:44:24.479Z,14.52
2022-11-16T05:46:51.324Z,10.38
2022-11-16T05:49:18.668Z,9.38
2022-11-16T05:51:47.178Z,13.95
2022-11-16T05:54:17.191Z,16.15
2022-11-16T05:56:43.961Z,9.60
2022-11-16T05:59:16.475Z,13.98
2022-11-16T06:01:43.529Z,14.68
2022-11-16T06:04:11.220Z,11.75
2022-11-16T06:06:37.991Z,17.00
2022-11-16T06:09:05.156Z,13.63
2022-11-16T06:11:35.855Z,13.70
2022-11-16T06:14:03.273Z,10.95
2022-11-16T06:16:30.558Z,13.75
2022-11-16T06:18:57.447Z,8.40
2022-11-16T06:21:24.233Z,13.98
2022-11-16T06:23:50.894Z,10.95
2022-11-16T06:26:18.010Z,9.85
2022-11-16T06:28:44.981Z,8.95
2022-11-16T06:31:11.624Z,12.15
2022-11-16T06:33:38.461Z,12.30
2022-11-16T06:36:05.464Z,9.35
2022-11-16T06:38:32.805Z,14.05
2022-11-16T06:41:00.116Z,15.80
2022-11-16T06:43:26.858Z,12.18
2022-11-16T06:45:55.525Z,10.88
2022-11-16T06:48:23.077Z,10.02
2022-11-16T06:50:50.935Z,13.10
2022-11-16T06:53:18.686Z,12.45
2022-11-16T06:55:45.408Z,10.50
2022-11-16T06:58:12.107Z,9.40
2022-11-16T07:00:38.837Z,9.20
2022-11-16T07:03:05.744Z,15.38
2022-11-16T07:05:33.317Z,8.55
2022-11-16T07:08:00.183Z,11.93
2022-11-16T07:10:26.871Z,8.63
2022-11-16T07:12:53.793Z,11.82
2022-11-16T07:15:20.882Z,15.52
2022-11-16T07:17:48.012Z,12.65
2022-11-16T07:20:14.751Z,7.43
2022-11-16T07:22:41.496Z,9.98
2022-11-16T07:25:08.764Z,14.57
2022-11-16T07:27:35.864Z,9.48
2022-11-16T07:30:02.988Z,6.25
2022-11-16T07:32:39.104Z,9.82
2022-11-16T07:35:06.776Z,7.97
2022-11-16T07:37:33.628Z,7.38
2022-11-16T07:40:00.304Z,8.63
2022-11-16T07:42:27.076Z,12.52
2022-11-16T07:44:53.773Z,11.55
2022-11-16T07:47:20.446Z,15.20
2022-11-16T07:49:48.961Z,14.25
2022-11-16T07:52:15.953Z,6.80
2022-11-16T07:54:42.754Z,9.35
2022-11-16T07:57:09.554Z,8.00
2022-11-16T07:59:36.190Z,13.48
2022-11-16T08:02:02.962Z,13.20
2022-11-16T08:04:30.410Z,10.98
2022-11-16T08:06:57.198Z,13.85
2022-11-16T08:09:23.903Z,12.30
2022-11-16T08:11:51.514Z,12.70
2022-11-16T08:14:19.314Z,11.25
2022-11-16T08:16:46.190Z,11.13
2022-11-16T08:19:13.092Z,8.07
2022-11-16T08:21:39.799Z,13.38
2022-11-16T08:24:06.662Z,12.20
2022-11-16T08:26:33.337Z,11.73
2022-11-16T08:29:00.048Z,12.90
2022-11-16T08:31:28.834Z,14.50
2022-11-16T08:33:56.687Z,12.38
2022-11-16T08:36:23.477Z,14.93
2022-11-16T08:38:51.762Z,13.95
2022-11-16T08:41:19.906Z,19.88
2022-11-16T08:43:47.484Z,16.15
2022-11-16T08:46:14.587Z,12.02
2022-11-16T08:48:41.316Z,12.23
2022-11-16T08:51:18.814Z,14.70
2022-11-16T08:53:48.536Z,11.30
2022-11-16T08:56:17.364Z,14.93
2022-11-16T08:58:47.057Z,11.73
2022-11-16T09:01:19.224Z,11.65
2022-11-16T09:03:46.713Z,11.63
2022-11-16T09:06:14.761Z,9.70
2022-11-16T09:08:43.933Z,9.85
2022-11-16T09:11:13.885Z,12.10
2022-11-16T09:13:40.663Z,12.18
2022-11-16T09:16:07.898Z,11.60
2022-11-16T09:18:35.459Z,9.32
2022-11-16T09:21:02.555Z,13.85
2022-11-16T09:23:29.374Z,10.35
2022-11-16T09:25:56.192Z,11.60
2022-11-16T09:28:23.290Z,12.13
2022-11-16T09:30:51.325Z,8.82
2022-11-16T09:33:18.553Z,11.32
2022-11-16T09:35:45.536Z,6.95
2022-11-16T09:38:17.517Z,16.35
2022-11-16T09:40:47.707Z,8.40
2022-11-16T09:43:17.242Z,6.63
2022-11-16T09:46:03.295Z,10.68
2022-11-16T09:48:35.829Z,11.90
2022-11-16T09:51:08.335Z,8.63
2022-11-16T09:53:43.943Z,8.32
2022-11-16T09:56:17.793Z,8.10
2022-11-16T09:59:26.957Z,9.50
2022-11-16T10:02:30.860Z,9.13
2022-11-16T10:05:10.782Z,11.02
2022-11-16T10:07:43.738Z,7.25
2022-11-16T10:10:15.990Z,14.43
2022-11-16T10:13:06.992Z,8.30
2022-11-16T10:16:00.483Z,10.10
2022-11-16T10:18:46.698Z,8.85
2022-11-16T10:21:50.613Z,8.57
2022-11-16T10:27:09.563Z,7.53
2022-11-16T10:29:51.979Z,5.82
2022-11-16T10:32:47.682Z,6.28
2022-11-16T10:35:24.265Z,9.98
2022-11-16T10:37:52.192Z,5.65
2022-11-16T10:40:23.739Z,6.47
2022-11-16T10:43:04.531Z,12.27
2022-11-16T10:45:46.005Z,9.32
2022-11-16T10:48:23.504Z,12.23
2022-11-16T10:50:52.842Z,9.98
2022-11-16T10:53:29.169Z,10.30
2022-11-16T10:56:24.000Z,6.93
2022-11-16T10:59:04.973Z,10.00
2022-11-16T11:01:43.643Z,8.85
2022-11-16T11:04:22.780Z,9.25
2022-11-16T11:06:55.386Z,9.70
2022-11-16T11:09:32.584Z,8.13
2022-11-16T11:12:18.456Z,13.27
2022-11-16T11:15:13.569Z,10.98
2022-11-16T11:17:47.354Z,15.02
2022-11-16T11:20:17.398Z,13.98
2022-11-16T11:22:48.476Z,11.65
2022-11-16T11:25:32.765Z,9.70
2022-11-16T11:28:27.832Z,16.08
2022-11-16T11:30:57.589Z,12.75
2022-11-16T11:33:27.198Z,12.02
2022-11-16T11:36:22.736Z,13.50
2022-11-16T11:39:06.230Z,13.25
2022-11-16T11:44:16.730Z,7.95
2022-11-16T11:49:54.264Z,12.63
2022-11-16T11:52:33.785Z,9.73
2022-11-16T11:55:02.965Z,15.43
2022-11-16T11:57:33.422Z,13.93
2022-11-16T12:00:09.334Z,10.57
2022-11-16T12:03:21.417Z,15.32
2022-11-16T12:06:14.918Z,9.45
2022-11-16T12:09:08.389Z,12.50
2022-11-16T12:12:01.817Z,11.82
2022-11-16T12:14:49.985Z,15.55
2022-11-16T12:17:36.423Z,13.27
2022-11-16T12:20:25.960Z,13.07
2022-11-16T12:23:12.948Z,13.65
2022-11-16T12:26:07.438Z,13.60
2022-11-16T12:28:52.399Z,13.68
2022-11-16T12:31:46.775Z,8.68
2022-11-16T12:34:55.982Z,8.52
2022-11-16T12:37:22.666Z,11.45
2022-11-16T12:40:07.214Z,11.77
2022-11-16T12:42:40.504Z,12.30
2022-11-16T12:45:41.218Z,8.88
2022-11-16T12:48:10.743Z,12.63
2022-11-16T12:51:14.664Z,9.90
2022-11-16T12:56:24.254Z,11.00
2022-11-16T12:58:53.774Z,5.35
2022-11-16T13:01:35.577Z,10.07
2022-11-16T13:04:24.090Z,9.20
2022-11-16T13:07:10.500Z,12.07
2022-11-16T13:09:46.270Z,12.20
2022-11-16T13:12:23.580Z,8.50
2022-11-16T13:14:53.540Z,11.27
2022-11-16T13:17:32.221Z,9.40
2022-11-16T13:20:15.054Z,10.20
2022-11-16T13:22:53.505Z,11.38
2022-11-16T13:25:33.223Z,12.80
2022-11-16T13:28:14.957Z,12.18
2022-11-16T13:31:05.375Z,12.57
2022-11-16T13:33:50.228Z,12.55
2022-11-16T13:36:32.818Z,12.13
2022-11-16T13:38:59.533Z,10.35
2022-11-16T13:41:39.283Z,12.27
2022-11-16T13:44:13.954Z,15.38
2022-11-16T13:46:56.146Z,9.55
2022-11-16T13:49:34.773Z,12.75
2022-11-16T13:52:22.139Z,11.15
2022-11-16T13:54:55.821Z,12.10
2022-11-16T14:00:00.668Z,12.25
2022-11-16T14:02:42.799Z,15.25
2022-11-16T14:05:12.408Z,13.43
2022-11-16T14:07:45.167Z,12.32
2022-11-16T14:10:32.670Z,14.00
2022-11-16T14:13:04.469Z,9.30
2022-11-16T14:15:35.546Z,9.80
2022-11-16T14:18:22.301Z,13.82
2022-11-16T14:21:03.212Z,10.77
2022-11-16T14:24:03.958Z,14.23
2022-11-16T14:26:46.157Z,9.68
2022-11-16T14:29:21.885Z,10.95
2022-11-16T14:31:54.963Z,9.93
2022-11-16T14:34:32.726Z,10.77
2022-11-16T14:37:00.650Z,8.70
2022-11-16T14:39:43.629Z,11.57
2022-11-16T14:42:22.359Z,12.35
2022-11-16T14:44:49.906Z,10.55
2022-11-16T14:47:26.662Z,13.70
2022-11-16T14:49:56.530Z,12.10
2022-11-16T14:52:31.748Z,8.10
2022-11-16T14:55:03.814Z,17.45
2022-11-16T14:57:31.004Z,15.68
2022-11-16T15:00:19.270Z,10.75
2022-11-16T15:02:51.860Z,13.95
2022-11-16T15:05:22.422Z,10.73
2022-11-16T15:07:53.010Z,10.10
2022-11-16T15:10:23.742Z,13.75
2022-11-16T15:12:51.856Z,11.10
2022-11-16T15:15:28.475Z,12.70
2022-11-16T15:18:07.207Z,15.00
2022-11-16T15:20:37.259Z,9.85
2022-11-16T15:23:06.269Z,9.23
2022-11-16T15:25:40.542Z,13.73
2022-11-16T15:28:15.065Z,15.57
2022-11-16T15:30:44.956Z,36.30
2022-11-16T15:33:17.730Z,15.05
2022-11-16T15:35:44.618Z,11.70
2022-11-16T15:38:22.250Z,9.45
2022-11-16T15:40:53.921Z,40.83
2022-11-16T15:43:23.790Z,35.92
2022-11-16T15:45:51.343Z,63.08
2022-11-16T15:48:24.083Z,24.25
2022-11-16T15:51:08.889Z,50.17
2022-11-16T15:53:44.961Z,25.55
2022-11-16T15:56:26.865Z,23.50
2022-11-16T15:59:09.602Z,22.50
2022-11-16T16:01:43.077Z,20.15
2022-11-16T16:04:16.071Z,19.83
2022-11-16T16:06:51.532Z,22.23
2022-11-16T16:09:32.049Z,22.50
2022-11-16T16:12:18.541Z,29.10
2022-11-16T16:14:45.596Z,23.25
2022-11-16T16:17:30.471Z,26.65
2022-11-16T16:20:02.822Z,18.98
2022-11-16T16:22:33.423Z,21.63
2022-11-16T16:25:01.632Z,16.08
2022-11-16T16:27:30.510Z,13.52
2022-11-16T16:29:59.085Z,22.30
2022-11-16T16:32:37.230Z,20.00
2022-11-16T16:35:08.912Z,23.15
2022-11-16T16:37:36.249Z,14.43
2022-11-16T16:40:03.537Z,16.38
2022-11-16T16:42:30.229Z,16.10
2022-11-16T16:44:59.478Z,30.67
2022-11-16T16:47:26.256Z,14.90
2022-11-16T16:49:53.571Z,16.85
2022-11-16T16:52:20.254Z,17.67
2022-11-16T16:54:47.066Z,19.70
2022-11-16T16:57:17.811Z,14.95
2022-11-16T16:59:45.616Z,13.13
2022-11-16T17:02:13.166Z,16.42
2022-11-16T17:04:40.340Z,16.30
2022-11-16T17:07:07.139Z,12.80
2022-11-16T17:09:33.850Z,26.85
2022-11-16T17:12:00.682Z,15.05
2022-11-16T17:14:27.342Z,21.42
2022-11-16T17:16:54.046Z,22.58
2022-11-16T17:19:23.022Z,14.77
2022-11-16T17:21:51.572Z,14.48
2022-11-16T17:24:18.388Z,16.23
2022-11-16T17:26:48.452Z,21.25
2022-11-16T17:29:15.319Z,17.60
2022-11-16T17:31:44.218Z,12.60
2022-11-16T17:34:13.865Z,10.50
2022-11-16T17:36:41.549Z,10.73
2022-11-16T17:39:08.234Z,18.13
2022-11-16T17:41:35.036Z,12.68
2022-11-16T17:44:01.980Z,15.85
2022-11-16T17:46:29.392Z,17.17
2022-11-16T17:48:56.594Z,18.38
2022-11-16T17:51:25.451Z,13.48
2022-11-16T17:53:52.881Z,14.50
2022-11-16T17:56:26.155Z,16.30
2022-11-16T18:01:22.691Z,12.73
2022-11-16T18:03:49.554Z,16.90
2022-11-16T18:06:21.800Z,15.18
2022-11-16T18:08:48.807Z,13.00
2022-11-16T18:11:15.726Z,23.80
2022-11-16T18:13:43.663Z,16.52
2022-11-16T18:16:13.078Z,17.38
2022-11-16T18:18:40.359Z,18.42
2022-11-16T18:21:08.703Z,14.65
2022-11-16T18:23:38.028Z,13.45
2022-11-16T18:26:13.147Z,11.50
2022-11-16T18:28:42.510Z,21.17
2022-11-16T18:31:13.206Z,22.25
2022-11-16T18:33:41.137Z,18.67
2022-11-16T18:36:14.712Z,18.65
2022-11-16T18:38:43.075Z,22.83
2022-11-16T18:41:14.355Z,23.88
2022-11-16T18:43:52.949Z,13.95
2022-11-16T18:46:28.793Z,15.88
2022-11-16T18:48:58.989Z,21.77
2022-11-16T18:51:30.027Z,14.65
2022-11-16T18:53:57.840Z,15.55
2022-11-16T18:56:28.326Z,14.55
2022-11-16T18:58:58.268Z,12.50
2022-11-16T19:01:27.774Z,15.20
2022-11-16T19:03:57.788Z,13.02
2022-11-16T19:14:33.429Z,16.27
2022-11-16T19:17:01.086Z,10.18
2022-11-16T19:19:30.846Z,18.95
2022-11-16T19:21:57.545Z,19.58
2022-11-16T19:24:24.554Z,14.60
2022-11-16T19:26:52.032Z,13.10
2022-11-16T19:29:18.808Z,11.98
2022-11-16T19:31:45.568Z,14.07
2022-11-16T19:34:13.369Z,10.80
2022-11-16T19:36:40.613Z,15.70
2022-11-16T19:39:07.501Z,9.77
2022-11-16T19:41:34.296Z,16.40
2022-11-16T19:44:02.080Z,17.70
2022-11-16T19:46:31.941Z,22.10
2022-11-16T19:49:00.462Z,23.77
2022-11-16T19:51:34.184Z,13.10
2022-11-16T19:54:02.961Z,15.10
2022-11-16T19:56:30.457Z,12.23
2022-11-16T19:58:57.457Z,16.67
2022-11-16T20:01:28.112Z,15.30
2022-11-16T20:03:57.138Z,16.77
2022-11-16T20:06:26.656Z,22.90
2022-11-16T20:09:02.480Z,19.35
2022-11-16T20:11:31.503Z,27.33
2022-11-16T20:13:59.184Z,16.27
2022-11-16T20:16:31.702Z,12.07
2022-11-16T20:19:02.745Z,14.85
2022-11-16T20:21:34.711Z,12.10
2022-11-16T20:24:06.504Z,26.95
2022-11-16T20:26:35.160Z,24.27
2022-11-16T20:29:02.067Z,35.47
2022-11-16T20:31:30.749Z,37.45
2022-11-16T20:33:59.954Z,24.20
2022-11-16T20:36:29.827Z,23.02
2022-11-16T20:38:58.221Z,26.13
2022-11-16T20:41:28.785Z,36.00
2022-11-16T20:43:57.975Z,28.67
2022-11-16T20:46:27.321Z,23.20
2022-11-16T20:48:57.130Z,36.20
2022-11-16T20:51:24.554Z,38.88
2022-11-16T20:53:53.217Z,29.20
2022-11-16T20:56:21.044Z,21.50
2022-11-16T20:58:49.369Z,23.52
2022-11-16T21:01:19.604Z,24.52
2022-11-16T21:03:46.995Z,25.25
2022-11-16T21:06:15.550Z,21.80
2022-11-16T21:08:42.658Z,30.02
2022-11-16T21:11:14.018Z,32.25
2022-11-16T21:14:00.018Z,28.42
2022-11-16T21:16:27.039Z,36.25
2022-11-16T21:18:55.887Z,29.15
2022-11-16T21:21:24.316Z,39.20
2022-11-16T21:23:55.159Z,30.27
2022-11-16T21:26:30.966Z,32.08
2022-11-16T21:28:59.492Z,40.15
2022-11-16T21:31:29.980Z,34.75
2022-11-16T21:33:57.921Z,25.70
2022-11-16T21:36:26.707Z,14.68
2022-11-16T21:38:54.271Z,20.40
2022-11-16T21:41:23.257Z,25.90
2022-11-16T21:43:50.159Z,30.55
2022-11-16T21:46:22.759Z,33.08
2022-11-16T21:48:51.261Z,32.60
2022-11-16T21:51:19.773Z,35.78
2022-11-16T21:53:47.372Z,26.83
2022-11-16T21:56:19.084Z,33.58
2022-11-16T21:58:46.571Z,21.40
2022-11-16T22:01:16.256Z,20.88
2022-11-16T22:03:44.847Z,33.22
2022-11-16T22:06:34.827Z,31.95
2022-11-16T22:09:02.109Z,33.63
2022-11-16T22:11:29.073Z,32.00
2022-11-16T22:13:55.722Z,39.60
2022-11-16T22:16:23.464Z,24.52
2022-11-16T22:18:50.388Z,24.58
2022-11-16T22:21:17.241Z,31.65
2022-11-16T22:23:44.143Z,27.17
2022-11-16T22:26:13.307Z,28.17
2022-11-16T22:28:39.961Z,22.85
2022-11-16T22:31:07.838Z,25.23
2022-11-16T22:33:35.589Z,26.02
2022-11-16T22:36:03.489Z,23.80
2022-11-16T22:38:30.545Z,24.98
2022-11-16T22:40:58.007Z,29.73
2022-11-16T22:43:27.140Z,22.83
2022-11-16T22:46:01.314Z,20.50
2022-11-16T22:48:41.484Z,19.27
2022-11-16T22:51:29.382Z,30.88
2022-11-16T22:54:04.031Z,23.67
2022-11-16T22:56:33.091Z,24.40
2022-11-16T22:59:01.364Z,20.13
2022-11-16T23:01:28.449Z,26.02
2022-11-16T23:03:55.312Z,21.98
2022-11-16T23:06:22.091Z,23.50
2022-11-16T23:08:48.900Z,31.10
2022-11-16T23:11:39.202Z,19.77
2022-11-16T23:14:25.879Z,12.98
2022-11-16T23:16:53.033Z,18.38
2022-11-16T23:19:40.105Z,24.30
2022-11-16T23:22:30.264Z,15.82
2022-11-16T23:25:15.601Z,16.52
2022-11-16T23:27:57.033Z,18.20
2022-11-16T23:30:24.524Z,23.85
2022-11-16T23:32:51.799Z,15.13
2022-11-16T23:35:18.802Z,20.02
2022-11-16T23:38:01.664Z,19.48
2022-11-16T23:40:32.181Z,28.67
2022-11-16T23:43:17.798Z,23.60
2022-11-16T23:45:45.433Z,21.42
2022-11-16T23:48:14.396Z,19.38
2022-11-16T23:50:41.215Z,20.23
2022-11-16T23:53:09.642Z,19.02
2022-11-16T23:55:41.194Z,21.52
2022-11-16T23:58:13.512Z,41.80
